AAL1610 KORD-KIND
Flight info
| Callsign | AAL1610 |
|---|---|
| Flight time | 0h 32m |
| Altitude | 23000 |
| Route | EARND ELANR JAKKS2 |
| Aircraft | A319/M-SDE3FGHIRWY/LB1 |
Departure
| Time | 2026-05-04 19:21 |
|---|---|
| Airport | Chicago O'Hare International Airport (KORD) |
Arrival
| Time | 2026-05-04 19:53 |
|---|---|
| Airport | Indianapolis International Airport (KIND) |
| Time | Latitude | Longitude | Altitude | Speed | Heading |
|---|---|---|---|---|---|
| 2026-05-04 19:03 | 41.97481 | -87.89718 | 690 ft | 0 kts | 221° |
| 2026-05-04 19:11 | 41.97499 | -87.89698 | 668 ft | 4 kts | 214° |
| 2026-05-04 19:11 | 41.97523 | -87.89681 | 670 ft | 4 kts | 187° |
| 2026-05-04 19:11 | 41.97541 | -87.89687 | 669 ft | 1 kts | 109° |
| 2026-05-04 19:12 | 41.97542 | -87.89693 | 669 ft | 0 kts | 109° |
| 2026-05-04 19:14 | 41.97538 | -87.89677 | 670 ft | 4 kts | 109° |
| 2026-05-04 19:15 | 41.97526 | -87.89633 | 671 ft | 6 kts | 109° |
| 2026-05-04 19:15 | 41.97511 | -87.89577 | 671 ft | 7 kts | 111° |
| 2026-05-04 19:15 | 41.97492 | -87.89513 | 671 ft | 8 kts | 111° |
| 2026-05-04 19:15 | 41.97469 | -87.89444 | 671 ft | 8 kts | 135° |
| 2026-05-04 19:16 | 41.97404 | -87.89430 | 671 ft | 11 kts | 183° |
| 2026-05-04 19:16 | 41.97326 | -87.89431 | 671 ft | 12 kts | 180° |
| 2026-05-04 19:16 | 41.97247 | -87.89433 | 671 ft | 12 kts | 181° |
| 2026-05-04 19:16 | 41.97195 | -87.89364 | 670 ft | 13 kts | 96° |
| 2026-05-04 19:17 | 41.97196 | -87.89231 | 670 ft | 15 kts | 90° |
| 2026-05-04 19:17 | 41.97196 | -87.89087 | 670 ft | 16 kts | 90° |
| 2026-05-04 19:17 | 41.97196 | -87.88930 | 670 ft | 18 kts | 90° |
| 2026-05-04 19:17 | 41.97196 | -87.88763 | 670 ft | 18 kts | 90° |
| 2026-05-04 19:18 | 41.97197 | -87.88598 | 670 ft | 18 kts | 90° |
| 2026-05-04 19:18 | 41.97196 | -87.88440 | 670 ft | 14 kts | 90° |
| 2026-05-04 19:18 | 41.97197 | -87.88302 | 670 ft | 16 kts | 89° |
| 2026-05-04 19:18 | 41.97198 | -87.88146 | 670 ft | 16 kts | 90° |
| 2026-05-04 19:19 | 41.97164 | -87.88036 | 670 ft | 12 kts | 158° |
| 2026-05-04 19:19 | 41.97082 | -87.88033 | 670 ft | 12 kts | 181° |
| 2026-05-04 19:19 | 41.96992 | -87.88026 | 670 ft | 13 kts | 176° |
| 2026-05-04 19:19 | 41.96921 | -87.88061 | 669 ft | 9 kts | 221° |
| 2026-05-04 19:20 | 41.96855 | -87.88140 | 669 ft | 28 kts | 221° |
| 2026-05-04 19:20 | 41.96507 | -87.88553 | 668 ft | 101 kts | 221° |
| 2026-05-04 19:20 | 41.95826 | -87.89344 | 737 ft | 150 kts | 220° |
| 2026-05-04 19:20 | 41.95286 | -87.89948 | 1098 ft | 153 kts | 224° |
| 2026-05-04 19:21 | 41.94489 | -87.90889 | 1885 ft | 152 kts | 223° |
| 2026-05-04 19:21 | 41.93683 | -87.91831 | 2622 ft | 159 kts | 223° |
| 2026-05-04 19:21 | 41.92635 | -87.92626 | 2970 ft | 192 kts | 198° |
| 2026-05-04 19:21 | 41.91202 | -87.92469 | 3423 ft | 226 kts | 168° |
| 2026-05-04 19:22 | 41.89682 | -87.91519 | 3998 ft | 255 kts | 156° |
| 2026-05-04 19:22 | 41.88114 | -87.90250 | 4809 ft | 269 kts | 153° |
| 2026-05-04 19:22 | 41.85976 | -87.88454 | 6049 ft | 279 kts | 153° |
| 2026-05-04 19:22 | 41.84846 | -87.87533 | 6678 ft | 283 kts | 154° |
| 2026-05-04 19:23 | 41.83129 | -87.86188 | 7646 ft | 288 kts | 156° |
| 2026-05-04 19:23 | 41.81372 | -87.84865 | 8612 ft | 292 kts | 157° |
| 2026-05-04 19:23 | 41.79574 | -87.83551 | 9581 ft | 296 kts | 158° |
| 2026-05-04 19:23 | 41.77730 | -87.82228 | 10294 ft | 309 kts | 159° |
| 2026-05-04 19:24 | 41.75753 | -87.80830 | 10658 ft | 334 kts | 159° |
| 2026-05-04 19:24 | 41.73622 | -87.79332 | 10950 ft | 358 kts | 158° |
| 2026-05-04 19:24 | 41.71399 | -87.77759 | 11423 ft | 372 kts | 158° |
| 2026-05-04 19:24 | 41.69097 | -87.76115 | 12150 ft | 378 kts | 158° |
| 2026-05-04 19:25 | 41.66763 | -87.74440 | 12933 ft | 383 kts | 158° |
| 2026-05-04 19:25 | 41.64400 | -87.72743 | 13671 ft | 388 kts | 158° |
| 2026-05-04 19:25 | 41.62002 | -87.71023 | 14370 ft | 393 kts | 158° |
| 2026-05-04 19:25 | 41.59578 | -87.69293 | 15054 ft | 397 kts | 158° |
| 2026-05-04 19:26 | 41.57125 | -87.67551 | 15736 ft | 402 kts | 158° |
| 2026-05-04 19:26 | 41.54643 | -87.65792 | 16408 ft | 406 kts | 157° |
| 2026-05-04 19:26 | 41.52131 | -87.64017 | 17080 ft | 411 kts | 157° |
| 2026-05-04 19:26 | 41.49593 | -87.62226 | 17761 ft | 415 kts | 157° |
| 2026-05-04 19:27 | 41.47027 | -87.60416 | 18361 ft | 419 kts | 157° |
| 2026-05-04 19:27 | 41.44433 | -87.58628 | 18941 ft | 421 kts | 160° |
| 2026-05-04 19:27 | 41.41693 | -87.57294 | 19508 ft | 418 kts | 169° |
| 2026-05-04 19:27 | 41.38848 | -87.56575 | 20077 ft | 416 kts | 178° |
| 2026-05-04 19:28 | 41.35962 | -87.56092 | 20634 ft | 419 kts | 177° |
| 2026-05-04 19:28 | 41.33058 | -87.55597 | 21171 ft | 423 kts | 177° |
| 2026-05-04 19:28 | 41.30127 | -87.55091 | 21700 ft | 426 kts | 177° |
| 2026-05-04 19:28 | 41.27174 | -87.54573 | 22222 ft | 430 kts | 176° |
| 2026-05-04 19:29 | 41.24196 | -87.54047 | 22591 ft | 433 kts | 176° |
| 2026-05-04 19:29 | 41.21191 | -87.53515 | 22667 ft | 441 kts | 176° |
| 2026-05-04 19:29 | 41.18104 | -87.52913 | 22678 ft | 456 kts | 174° |
| 2026-05-04 19:29 | 41.14955 | -87.52152 | 22675 ft | 463 kts | 172° |
| 2026-05-04 19:30 | 41.11786 | -87.51280 | 22675 ft | 466 kts | 171° |
| 2026-05-04 19:30 | 41.08617 | -87.50357 | 22678 ft | 466 kts | 171° |
| 2026-05-04 19:30 | 41.05449 | -87.49428 | 22689 ft | 466 kts | 171° |
| 2026-05-04 19:30 | 41.02280 | -87.48524 | 22692 ft | 466 kts | 171° |
| 2026-05-04 19:31 | 40.99108 | -87.47650 | 22698 ft | 466 kts | 172° |
| 2026-05-04 19:31 | 40.95931 | -87.46798 | 22696 ft | 465 kts | 172° |
| 2026-05-04 19:31 | 40.92754 | -87.45964 | 22697 ft | 465 kts | 173° |
| 2026-05-04 19:31 | 40.89621 | -87.45149 | 22695 ft | 465 kts | 172° |
| 2026-05-04 19:32 | 40.86449 | -87.44316 | 22699 ft | 465 kts | 172° |
| 2026-05-04 19:32 | 40.83274 | -87.43475 | 22702 ft | 465 kts | 172° |
| 2026-05-04 19:32 | 40.80102 | -87.42627 | 22700 ft | 465 kts | 172° |
| 2026-05-04 19:32 | 40.76927 | -87.41777 | 22697 ft | 465 kts | 172° |
| 2026-05-04 19:33 | 40.73757 | -87.40928 | 22696 ft | 465 kts | 172° |
| 2026-05-04 19:33 | 40.70586 | -87.40083 | 22697 ft | 465 kts | 172° |
| 2026-05-04 19:33 | 40.67415 | -87.39241 | 22702 ft | 465 kts | 172° |
| 2026-05-04 19:33 | 40.64242 | -87.38401 | 22702 ft | 465 kts | 172° |
| 2026-05-04 19:34 | 40.61072 | -87.37566 | 22708 ft | 465 kts | 172° |
| 2026-05-04 19:34 | 40.57902 | -87.36732 | 22709 ft | 465 kts | 172° |
| 2026-05-04 19:34 | 40.54724 | -87.35897 | 22653 ft | 469 kts | 172° |
| 2026-05-04 19:34 | 40.51502 | -87.35048 | 22383 ft | 474 kts | 171° |
| 2026-05-04 19:35 | 40.48328 | -87.33775 | 22111 ft | 479 kts | 161° |
| 2026-05-04 19:35 | 40.45351 | -87.31779 | 21848 ft | 482 kts | 151° |
| 2026-05-04 19:35 | 40.42718 | -87.29164 | 21582 ft | 468 kts | 141° |
| 2026-05-04 19:35 | 40.40526 | -87.26097 | 21321 ft | 454 kts | 131° |
| 2026-05-04 19:36 | 40.38573 | -87.22923 | 21067 ft | 440 kts | 132° |
| 2026-05-04 19:36 | 40.36671 | -87.19861 | 20816 ft | 428 kts | 132° |
| 2026-05-04 19:36 | 40.34810 | -87.16876 | 20562 ft | 418 kts | 132° |
| 2026-05-04 19:36 | 40.32996 | -87.13969 | 20391 ft | 406 kts | 133° |
| 2026-05-04 19:37 | 40.31238 | -87.11154 | 20265 ft | 392 kts | 133° |
| 2026-05-04 19:37 | 40.29548 | -87.08448 | 19970 ft | 377 kts | 133° |
| 2026-05-04 19:37 | 40.27902 | -87.05818 | 19386 ft | 371 kts | 133° |
| 2026-05-04 19:37 | 40.26275 | -87.03224 | 18743 ft | 367 kts | 133° |
| 2026-05-04 19:38 | 40.24658 | -87.00648 | 18119 ft | 365 kts | 134° |
| 2026-05-04 19:38 | 40.23054 | -86.98092 | 17433 ft | 362 kts | 134° |
| 2026-05-04 19:38 | 40.21468 | -86.95558 | 16778 ft | 358 kts | 134° |
| 2026-05-04 19:38 | 40.19901 | -86.93054 | 16146 ft | 354 kts | 134° |
| 2026-05-04 19:39 | 40.18413 | -86.90678 | 15606 ft | 350 kts | 134° |
| 2026-05-04 19:39 | 40.16875 | -86.88225 | 15019 ft | 347 kts | 134° |
| 2026-05-04 19:39 | 40.15320 | -86.85845 | 14443 ft | 342 kts | 137° |
| 2026-05-04 19:39 | 40.13718 | -86.83578 | 13899 ft | 337 kts | 139° |
| 2026-05-04 19:40 | 40.12099 | -86.81384 | 13329 ft | 333 kts | 140° |
| 2026-05-04 19:40 | 40.10486 | -86.79229 | 12794 ft | 331 kts | 140° |
| 2026-05-04 19:40 | 40.08890 | -86.77089 | 12501 ft | 327 kts | 140° |
| 2026-05-04 19:40 | 40.07319 | -86.74968 | 12242 ft | 323 kts | 140° |
| 2026-05-04 19:41 | 40.05765 | -86.72860 | 11988 ft | 321 kts | 140° |
| 2026-05-04 19:41 | 40.04226 | -86.70757 | 11733 ft | 320 kts | 140° |
| 2026-05-04 19:41 | 40.02695 | -86.68662 | 11481 ft | 318 kts | 140° |
| 2026-05-04 19:41 | 40.01175 | -86.66580 | 11229 ft | 317 kts | 140° |
| 2026-05-04 19:42 | 39.99661 | -86.64503 | 10981 ft | 315 kts | 141° |
| 2026-05-04 19:42 | 39.98152 | -86.62432 | 10732 ft | 314 kts | 141° |
| 2026-05-04 19:42 | 39.96721 | -86.60467 | 10409 ft | 313 kts | 141° |
| 2026-05-04 19:42 | 39.95226 | -86.58396 | 9980 ft | 314 kts | 141° |
| 2026-05-04 19:43 | 39.93744 | -86.56327 | 9594 ft | 312 kts | 141° |
| 2026-05-04 19:43 | 39.92271 | -86.54267 | 9085 ft | 307 kts | 141° |
| 2026-05-04 19:43 | 39.90832 | -86.52252 | 8578 ft | 301 kts | 141° |
| 2026-05-04 19:43 | 39.89409 | -86.50264 | 8130 ft | 299 kts | 141° |
| 2026-05-04 19:44 | 39.88023 | -86.48323 | 7821 ft | 284 kts | 141° |
| 2026-05-04 19:44 | 39.86711 | -86.46483 | 7664 ft | 275 kts | 142° |
| 2026-05-04 19:44 | 39.85403 | -86.44669 | 7543 ft | 274 kts | 142° |
| 2026-05-04 19:44 | 39.84070 | -86.42881 | 7108 ft | 275 kts | 143° |
| 2026-05-04 19:45 | 39.82735 | -86.41123 | 6602 ft | 272 kts | 144° |
| 2026-05-04 19:45 | 39.81409 | -86.39385 | 6131 ft | 267 kts | 144° |
| 2026-05-04 19:45 | 39.80337 | -86.37502 | 6052 ft | 260 kts | 119° |
| 2026-05-04 19:45 | 39.80146 | -86.35237 | 5948 ft | 256 kts | 81° |
| 2026-05-04 19:46 | 39.80909 | -86.33257 | 5597 ft | 240 kts | 44° |
| 2026-05-04 19:46 | 39.82055 | -86.31784 | 5311 ft | 227 kts | 40° |
| 2026-05-04 19:46 | 39.83171 | -86.30350 | 5027 ft | 224 kts | 40° |
| 2026-05-04 19:46 | 39.84273 | -86.28929 | 4746 ft | 222 kts | 40° |
| 2026-05-04 19:47 | 39.85283 | -86.27418 | 4475 ft | 223 kts | 56° |
| 2026-05-04 19:47 | 39.85837 | -86.25553 | 4226 ft | 219 kts | 81° |
| 2026-05-04 19:47 | 39.85859 | -86.23626 | 3977 ft | 208 kts | 105° |
| 2026-05-04 19:47 | 39.85392 | -86.21923 | 3750 ft | 194 kts | 128° |
| 2026-05-04 19:48 | 39.84598 | -86.20671 | 3533 ft | 163 kts | 149° |
| 2026-05-04 19:48 | 39.83742 | -86.19935 | 3368 ft | 136 kts | 165° |
| 2026-05-04 19:48 | 39.82897 | -86.19558 | 3219 ft | 122 kts | 177° |
| 2026-05-04 19:48 | 39.82070 | -86.19448 | 3100 ft | 118 kts | 189° |
| 2026-05-04 19:49 | 39.81256 | -86.19568 | 2952 ft | 118 kts | 198° |
| 2026-05-04 19:49 | 39.80475 | -86.19914 | 2831 ft | 120 kts | 207° |
| 2026-05-04 19:49 | 39.79752 | -86.20484 | 2687 ft | 122 kts | 218° |
| 2026-05-04 19:49 | 39.79137 | -86.21230 | 2540 ft | 121 kts | 224° |
| 2026-05-04 19:50 | 39.78534 | -86.22003 | 2374 ft | 121 kts | 222° |
| 2026-05-04 19:50 | 39.77926 | -86.22779 | 2208 ft | 123 kts | 223° |
| 2026-05-04 19:50 | 39.77320 | -86.23550 | 2048 ft | 124 kts | 223° |
| 2026-05-04 19:50 | 39.76718 | -86.24317 | 1888 ft | 119 kts | 221° |
| 2026-05-04 19:51 | 39.76119 | -86.25080 | 1716 ft | 124 kts | 220° |
| 2026-05-04 19:51 | 39.75504 | -86.25863 | 1544 ft | 123 kts | 223° |
| 2026-05-04 19:51 | 39.74899 | -86.26636 | 1387 ft | 123 kts | 218° |
| 2026-05-04 19:51 | 39.74290 | -86.27424 | 1195 ft | 125 kts | 220° |
| 2026-05-04 19:52 | 39.73677 | -86.28219 | 1029 ft | 123 kts | 223° |
| 2026-05-04 19:52 | 39.73073 | -86.28988 | 849 ft | 120 kts | 223° |
| 2026-05-04 19:52 | 39.72482 | -86.29740 | 784 ft | 111 kts | 224° |
| 2026-05-04 19:52 | 39.72032 | -86.30312 | 777 ft | 67 kts | 223° |
| 2026-05-04 19:53 | 39.71803 | -86.30600 | 777 ft | 34 kts | 224° |
| 2026-05-04 19:53 | 39.71637 | -86.30809 | 778 ft | 34 kts | 224° |
| 2026-05-04 19:53 | 39.71509 | -86.30966 | 779 ft | 21 kts | 218° |
| 2026-05-04 19:53 | 39.71385 | -86.31009 | 780 ft | 13 kts | 178° |
| 2026-05-04 19:54 | 39.71316 | -86.30977 | 781 ft | 9 kts | 139° |
| 2026-05-04 19:54 | 39.71321 | -86.30911 | 781 ft | 9 kts | 48° |
| 2026-05-04 19:54 | 39.71378 | -86.30841 | 781 ft | 15 kts | 44° |
| 2026-05-04 19:54 | 39.71454 | -86.30744 | 781 ft | 16 kts | 45° |
| 2026-05-04 19:55 | 39.71535 | -86.30641 | 781 ft | 17 kts | 44° |
| 2026-05-04 19:55 | 39.71619 | -86.30534 | 781 ft | 17 kts | 44° |
| 2026-05-04 19:55 | 39.71706 | -86.30423 | 781 ft | 18 kts | 44° |
| 2026-05-04 19:55 | 39.71794 | -86.30311 | 781 ft | 18 kts | 45° |
| 2026-05-04 19:56 | 39.71883 | -86.30198 | 781 ft | 18 kts | 44° |
| 2026-05-04 19:56 | 39.71973 | -86.30083 | 781 ft | 18 kts | 45° |
| 2026-05-04 19:56 | 39.72062 | -86.29969 | 781 ft | 14 kts | 44° |
| 2026-05-04 19:56 | 39.72135 | -86.29876 | 781 ft | 15 kts | 44° |
| 2026-05-04 19:57 | 39.72200 | -86.29794 | 781 ft | 11 kts | 44° |
| 2026-05-04 19:57 | 39.72247 | -86.29724 | 781 ft | 10 kts | 70° |
| 2026-05-04 19:57 | 39.72223 | -86.29651 | 782 ft | 10 kts | 135° |
| 2026-05-04 19:57 | 39.72170 | -86.29583 | 782 ft | 12 kts | 135° |
| 2026-05-04 19:58 | 39.72110 | -86.29504 | 782 ft | 13 kts | 134° |
| 2026-05-04 19:58 | 39.72046 | -86.29420 | 782 ft | 13 kts | 134° |
| 2026-05-04 19:58 | 39.71978 | -86.29331 | 782 ft | 14 kts | 134° |
| 2026-05-04 19:58 | 39.71920 | -86.29271 | 782 ft | 10 kts | 164° |
| 2026-05-04 19:59 | 39.71861 | -86.29311 | 782 ft | 11 kts | 226° |
| 2026-05-04 19:59 | 39.71840 | -86.29407 | 782 ft | 11 kts | 263° |
| 2026-05-04 19:59 | 39.71789 | -86.29488 | 782 ft | 12 kts | 218° |
| 2026-05-04 19:59 | 39.71720 | -86.29563 | 782 ft | 13 kts | 223° |
| 2026-05-04 20:00 | 39.71663 | -86.29635 | 782 ft | 11 kts | 225° |
| 2026-05-04 20:00 | 39.71613 | -86.29693 | 782 ft | 9 kts | 233° |
| 2026-05-04 20:00 | 39.71626 | -86.29753 | 782 ft | 5 kts | 307° |
| 2026-05-04 20:00 | 39.71635 | -86.29771 | 782 ft | 1 kts | 301° |